sensor_id;sensor_type;location;lat;lon;timestamp;pressure;altitude;pressure_sealevel;temperature;humidity
19736;BME280;32064;49.310;8.646;2023-01-15T00:01:02;99215.22;;;13.70;81.96
19736;BME280;32064;49.310;8.646;2023-01-15T00:03:29;99221.41;;;13.61;82.98
19736;BME280;32064;49.310;8.646;2023-01-15T00:05:54;99219.00;;;13.68;82.36
19736;BME280;32064;49.310;8.646;2023-01-15T00:08:20;99221.84;;;13.75;82.17
19736;BME280;32064;49.310;8.646;2023-01-15T00:10:45;99224.78;;;13.72;82.00
19736;BME280;32064;49.310;8.646;2023-01-15T00:13:11;99222.97;;;13.72;82.70
19736;BME280;32064;49.310;8.646;2023-01-15T00:15:36;99217.38;;;13.75;82.58
19736;BME280;32064;49.310;8.646;2023-01-15T00:18:02;99218.00;;;13.69;82.31
19736;BME280;32064;49.310;8.646;2023-01-15T00:20:28;99211.72;;;13.70;83.28
19736;BME280;32064;49.310;8.646;2023-01-15T00:22:53;99205.81;;;13.76;82.81
19736;BME280;32064;49.310;8.646;2023-01-15T00:25:19;99204.28;;;13.65;82.86
19736;BME280;32064;49.310;8.646;2023-01-15T00:28:03;99197.34;;;13.64;83.63
19736;BME280;32064;49.310;8.646;2023-01-15T00:30:28;99190.69;;;13.60;83.16
19736;BME280;32064;49.310;8.646;2023-01-15T00:32:54;99185.91;;;13.64;83.52
19736;BME280;32064;49.310;8.646;2023-01-15T00:35:21;99174.34;;;13.57;83.55
19736;BME280;32064;49.310;8.646;2023-01-15T00:37:47;99177.81;;;13.57;83.55
19736;BME280;32064;49.310;8.646;2023-01-15T00:40:14;99173.69;;;13.63;84.00
19736;BME280;32064;49.310;8.646;2023-01-15T00:42:40;99149.06;;;13.54;84.64
19736;BME280;32064;49.310;8.646;2023-01-15T00:45:06;99164.59;;;13.57;83.85
19736;BME280;32064;49.310;8.646;2023-01-15T00:47:36;99142.63;;;13.57;83.83
19736;BME280;32064;49.310;8.646;2023-01-15T00:50:04;99143.25;;;13.51;83.70
19736;BME280;32064;49.310;8.646;2023-01-15T00:52:30;99153.69;;;13.60;84.57
19736;BME280;32064;49.310;8.646;2023-01-15T00:54:55;99151.22;;;13.59;84.32
19736;BME280;32064;49.310;8.646;2023-01-15T00:57:20;99130.91;;;13.59;84.60
19736;BME280;32064;49.310;8.646;2023-01-15T00:59:46;99124.31;;;13.63;84.34
19736;BME280;32064;49.310;8.646;2023-01-15T01:02:11;99137.34;;;13.57;84.64
19736;BME280;32064;49.310;8.646;2023-01-15T01:04:37;99127.59;;;13.57;84.52
19736;BME280;32064;49.310;8.646;2023-01-15T01:07:02;99127.59;;;13.57;84.07
19736;BME280;32064;49.310;8.646;2023-01-15T01:09:28;99124.44;;;13.54;84.66
19736;BME280;32064;49.310;8.646;2023-01-15T01:11:53;99126.59;;;13.58;84.31
19736;BME280;32064;49.310;8.646;2023-01-15T01:14:18;99126.91;;;13.55;84.87
19736;BME280;32064;49.310;8.646;2023-01-15T01:16:44;99117.22;;;13.64;84.81
19736;BME280;32064;49.310;8.646;2023-01-15T01:19:12;99123.63;;;13.61;84.22
19736;BME280;32064;49.310;8.646;2023-01-15T01:21:39;99124.94;;;13.57;85.29
19736;BME280;32064;49.310;8.646;2023-01-15T01:24:05;99127.13;;;13.62;84.71
19736;BME280;32064;49.310;8.646;2023-01-15T01:26:31;99126.44;;;13.60;84.89
19736;BME280;32064;49.310;8.646;2023-01-15T01:28:57;99108.47;;;13.63;84.38
19736;BME280;32064;49.310;8.646;2023-01-15T01:31:22;99105.31;;;13.60;84.84
19736;BME280;32064;49.310;8.646;2023-01-15T01:33:52;99115.56;;;13.63;85.00
19736;BME280;32064;49.310;8.646;2023-01-15T01:36:19;99110.94;;;13.65;84.89
19736;BME280;32064;49.310;8.646;2023-01-15T01:38:48;99101.66;;;13.61;84.97
19736;BME280;32064;49.310;8.646;2023-01-15T01:41:15;99106.81;;;13.62;84.76
19736;BME280;32064;49.310;8.646;2023-01-15T01:43:59;99102.78;;;13.50;85.82
19736;BME280;32064;49.310;8.646;2023-01-15T01:46:26;99104.63;;;13.58;84.69
19736;BME280;32064;49.310;8.646;2023-01-15T01:48:55;99092.78;;;13.62;84.50
19736;BME280;32064;49.310;8.646;2023-01-15T01:51:25;99104.63;;;13.58;85.80
19736;BME280;32064;49.310;8.646;2023-01-15T01:53:52;99109.28;;;13.64;85.09
19736;BME280;32064;49.310;8.646;2023-01-15T01:56:17;99107.16;;;13.67;85.51
19736;BME280;32064;49.310;8.646;2023-01-15T01:58:46;99109.63;;;13.69;84.54
19736;BME280;32064;49.310;8.646;2023-01-15T02:01:12;99103.50;;;13.60;86.14
19736;BME280;32064;49.310;8.646;2023-01-15T02:03:38;99096.91;;;13.64;85.43
19736;BME280;32064;49.310;8.646;2023-01-15T02:06:06;99103.84;;;13.65;85.08
19736;BME280;32064;49.310;8.646;2023-01-15T02:08:32;99105.81;;;13.63;86.22
19736;BME280;32064;49.310;8.646;2023-01-15T02:10:59;99093.56;;;13.54;86.09
19736;BME280;32064;49.310;8.646;2023-01-15T02:16:22;99084.00;;;13.53;86.67
19736;BME280;32064;49.310;8.646;2023-01-15T02:29:46;99056.72;;;13.53;87.28
19736;BME280;32064;49.310;8.646;2023-01-15T02:32:28;99060.03;;;13.55;87.31
19736;BME280;32064;49.310;8.646;2023-01-15T02:34:58;99052.59;;;13.58;87.94
19736;BME280;32064;49.310;8.646;2023-01-15T02:37:28;99060.53;;;13.58;87.58
19736;BME280;32064;49.310;8.646;2023-01-15T02:39:56;99054.59;;;13.56;88.14
19736;BME280;32064;49.310;8.646;2023-01-15T02:42:24;99066.66;;;13.59;88.13
19736;BME280;32064;49.310;8.646;2023-01-15T02:44:53;99061.53;;;13.57;88.78
19736;BME280;32064;49.310;8.646;2023-01-15T02:47:24;99067.31;;;13.61;88.33
19736;BME280;32064;49.310;8.646;2023-01-15T02:49:52;99062.84;;;13.61;88.05
19736;BME280;32064;49.310;8.646;2023-01-15T02:52:24;99066.81;;;13.57;88.23
19736;BME280;32064;49.310;8.646;2023-01-15T02:55:15;99062.97;;;13.43;88.74
19736;BME280;32064;49.310;8.646;2023-01-15T02:57:42;99062.34;;;13.58;88.64
19736;BME280;32064;49.310;8.646;2023-01-15T03:00:13;99062.03;;;13.61;88.17
19736;BME280;32064;49.310;8.646;2023-01-15T03:02:55;99059.25;;;13.62;87.59
19736;BME280;32064;49.310;8.646;2023-01-15T03:05:26;99068.13;;;13.61;88.50
19736;BME280;32064;49.310;8.646;2023-01-15T03:07:58;99069.63;;;13.64;88.60
19736;BME280;32064;49.310;8.646;2023-01-15T03:11:13;99068.31;;;13.60;87.95
19736;BME280;32064;49.310;8.646;2023-01-15T03:16:32;99070.94;;;13.52;89.41
19736;BME280;32064;49.310;8.646;2023-01-15T03:21:40;99076.22;;;13.52;89.42
19736;BME280;32064;49.310;8.646;2023-01-15T03:24:09;99080.50;;;13.53;89.93
19736;BME280;32064;49.310;8.646;2023-01-15T03:26:35;99075.38;;;13.51;90.73
19736;BME280;32064;49.310;8.646;2023-01-15T03:29:02;99068.13;;;13.53;90.51
19736;BME280;32064;49.310;8.646;2023-01-15T03:31:31;99069.44;;;13.49;90.31
19736;BME280;32064;49.310;8.646;2023-01-15T03:33:57;99087.47;;;13.54;91.10
19736;BME280;32064;49.310;8.646;2023-01-15T03:36:23;99087.09;;;13.48;90.96
19736;BME280;32064;49.310;8.646;2023-01-15T03:38:48;99092.53;;;13.47;92.27
19736;BME280;32064;49.310;8.646;2023-01-15T03:41:23;99105.91;;;13.45;91.24
19736;BME280;32064;49.310;8.646;2023-01-15T03:44:33;99114.44;;;13.13;91.50
19736;BME280;32064;49.310;8.646;2023-01-15T03:50:21;99123.16;;;12.79;89.47
19736;BME280;32064;49.310;8.646;2023-01-15T03:53:12;99122.91;;;12.73;88.68
19736;BME280;32064;49.310;8.646;2023-01-15T03:56:35;99137.72;;;12.48;87.09
19736;BME280;32064;49.310;8.646;2023-01-15T04:01:10;99140.44;;;12.38;86.43
19736;BME280;32064;49.310;8.646;2023-01-15T04:03:37;99143.44;;;12.25;86.59
19736;BME280;32064;49.310;8.646;2023-01-15T04:06:04;99141.47;;;12.09;86.68
19736;BME280;32064;49.310;8.646;2023-01-15T04:08:34;99141.22;;;12.03;87.15
19736;BME280;32064;49.310;8.646;2023-01-15T04:11:01;99128.44;;;12.08;85.85
19736;BME280;32064;49.310;8.646;2023-01-15T04:13:28;99125.28;;;12.04;87.18
19736;BME280;32064;49.310;8.646;2023-01-15T04:15:54;99127.09;;;12.04;86.79
19736;BME280;32064;49.310;8.646;2023-01-15T04:18:20;99126.31;;;12.11;85.56
19736;BME280;32064;49.310;8.646;2023-01-15T04:20:46;99145.94;;;12.09;86.87
19736;BME280;32064;49.310;8.646;2023-01-15T04:23:12;99140.56;;;12.01;87.12
19736;BME280;32064;49.310;8.646;2023-01-15T04:25:38;99165.69;;;11.95;86.88
19736;BME280;32064;49.310;8.646;2023-01-15T04:28:05;99159.06;;;11.91;86.47
19736;BME280;32064;49.310;8.646;2023-01-15T04:30:31;99171.09;;;11.94;86.60
19736;BME280;32064;49.310;8.646;2023-01-15T04:32:57;99176.38;;;11.94;86.88
19736;BME280;32064;49.310;8.646;2023-01-15T04:35:22;99175.16;;;11.88;86.87
19736;BME280;32064;49.310;8.646;2023-01-15T04:37:48;99189.31;;;11.87;86.55
19736;BME280;32064;49.310;8.646;2023-01-15T04:40:13;99187.22;;;11.90;86.68
19736;BME280;32064;49.310;8.646;2023-01-15T04:42:59;99192.22;;;11.84;87.22
19736;BME280;32064;49.310;8.646;2023-01-15T04:45:43;99179.06;;;11.74;87.88
19736;BME280;32064;49.310;8.646;2023-01-15T04:48:10;99183.69;;;11.72;85.71
19736;BME280;32064;49.310;8.646;2023-01-15T04:50:37;99178.41;;;11.72;85.81
19736;BME280;32064;49.310;8.646;2023-01-15T04:53:02;99172.69;;;11.77;86.44
19736;BME280;32064;49.310;8.646;2023-01-15T04:55:28;99182.41;;;11.76;86.33
19736;BME280;32064;49.310;8.646;2023-01-15T04:57:54;99181.69;;;11.74;86.53
19736;BME280;32064;49.310;8.646;2023-01-15T05:00:20;99189.91;;;11.71;87.13
19736;BME280;32064;49.310;8.646;2023-01-15T05:02:45;99182.44;;;11.66;86.76
19736;BME280;32064;49.310;8.646;2023-01-15T05:05:10;99197.97;;;11.69;87.43
19736;BME280;32064;49.310;8.646;2023-01-15T05:07:36;99214.59;;;11.70;87.66
19736;BME280;32064;49.310;8.646;2023-01-15T05:10:01;99212.38;;;11.65;86.94
19736;BME280;32064;49.310;8.646;2023-01-15T05:12:27;99215.72;;;11.67;87.90
19736;BME280;32064;49.310;8.646;2023-01-15T05:14:52;99222.63;;;11.68;85.59
19736;BME280;32064;49.310;8.646;2023-01-15T05:17:18;99216.00;;;11.64;86.73
19736;BME280;32064;49.310;8.646;2023-01-15T05:19:43;99220.03;;;11.59;87.17
19736;BME280;32064;49.310;8.646;2023-01-15T05:22:08;99228.47;;;11.62;87.57
19736;BME280;32064;49.310;8.646;2023-01-15T05:24:34;99228.63;;;11.61;86.89
19736;BME280;32064;49.310;8.646;2023-01-15T05:27:00;99232.81;;;11.54;86.49
19736;BME280;32064;49.310;8.646;2023-01-15T05:29:26;99245.97;;;11.54;87.36
19736;BME280;32064;49.310;8.646;2023-01-15T05:31:51;99234.44;;;11.55;87.67
19736;BME280;32064;49.310;8.646;2023-01-15T05:34:16;99217.25;;;11.60;86.73
19736;BME280;32064;49.310;8.646;2023-01-15T05:36:42;99217.53;;;11.57;86.75
19736;BME280;32064;49.310;8.646;2023-01-15T05:39:07;99225.44;;;11.57;87.35
19736;BME280;32064;49.310;8.646;2023-01-15T05:41:33;99226.72;;;11.53;86.47
19736;BME280;32064;49.310;8.646;2023-01-15T05:44:16;99243.34;;;11.54;87.27
19736;BME280;32064;49.310;8.646;2023-01-15T05:46:42;99250.13;;;11.56;85.96
19736;BME280;32064;49.310;8.646;2023-01-15T05:49:11;99260.78;;;11.55;87.16
19736;BME280;32064;49.310;8.646;2023-01-15T05:51:38;99273.97;;;11.55;87.82
19736;BME280;32064;49.310;8.646;2023-01-15T05:54:05;99267.75;;;11.56;86.66
19736;BME280;32064;49.310;8.646;2023-01-15T05:56:34;99245.97;;;11.54;87.37
19736;BME280;32064;49.310;8.646;2023-01-15T05:59:00;99243.34;;;11.54;86.21
19736;BME280;32064;49.310;8.646;2023-01-15T06:01:25;99245.00;;;11.55;86.81
19736;BME280;32064;49.310;8.646;2023-01-15T06:03:50;99251.41;;;11.42;86.31
19736;BME280;32064;49.310;8.646;2023-01-15T06:06:17;99246.00;;;11.44;85.42
19736;BME280;32064;49.310;8.646;2023-01-15T06:08:44;99249.47;;;11.44;85.35
19736;BME280;32064;49.310;8.646;2023-01-15T06:11:09;99260.41;;;11.40;85.73
19736;BME280;32064;49.310;8.646;2023-01-15T06:13:36;99254.91;;;11.33;84.30
19736;BME280;32064;49.310;8.646;2023-01-15T06:16:03;99271.50;;;11.34;85.12
19736;BME280;32064;49.310;8.646;2023-01-15T06:18:29;99263.34;;;11.27;85.05
19736;BME280;32064;49.310;8.646;2023-01-15T06:20:54;99280.66;;;11.20;84.49
19736;BME280;32064;49.310;8.646;2023-01-15T06:23:19;99285.09;;;11.19;84.32
19736;BME280;32064;49.310;8.646;2023-01-15T06:25:45;99285.22;;;11.18;84.20
19736;BME280;32064;49.310;8.646;2023-01-15T06:28:10;99292.59;;;11.14;84.05
19736;BME280;32064;49.310;8.646;2023-01-15T06:30:37;99308.81;;;11.19;83.76
19736;BME280;32064;49.310;8.646;2023-01-15T06:33:03;99306.28;;;11.18;83.18
19736;BME280;32064;49.310;8.646;2023-01-15T06:35:28;99304.38;;;11.20;82.81
19736;BME280;32064;49.310;8.646;2023-01-15T06:37:54;99320.72;;;11.14;82.10
19736;BME280;32064;49.310;8.646;2023-01-15T06:40:19;99328.72;;;11.12;83.09
19736;BME280;32064;49.310;8.646;2023-01-15T06:42:45;99333.75;;;11.15;81.95
19736;BME280;32064;49.310;8.646;2023-01-15T06:45:36;99333.06;;;11.13;82.50
19736;BME280;32064;49.310;8.646;2023-01-15T06:48:21;99345.22;;;11.14;83.14
19736;BME280;32064;49.310;8.646;2023-01-15T06:50:46;99352.31;;;11.14;82.79
19736;BME280;32064;49.310;8.646;2023-01-15T06:53:12;99360.06;;;11.15;83.71
19736;BME280;32064;49.310;8.646;2023-01-15T06:55:38;99354.38;;;11.10;83.97
19736;BME280;32064;49.310;8.646;2023-01-15T06:58:03;99353.56;;;11.10;81.88
19736;BME280;32064;49.310;8.646;2023-01-15T07:00:28;99349.66;;;11.14;81.75
19736;BME280;32064;49.310;8.646;2023-01-15T07:02:54;99379.44;;;11.14;83.48
19736;BME280;32064;49.310;8.646;2023-01-15T07:05:19;99384.88;;;11.13;82.61
19736;BME280;32064;49.310;8.646;2023-01-15T07:07:45;99406.06;;;11.11;83.24
19736;BME280;32064;49.310;8.646;2023-01-15T07:10:10;99409.66;;;11.10;83.14
19736;BME280;32064;49.310;8.646;2023-01-15T07:12:35;99419.66;;;11.16;83.76
19736;BME280;32064;49.310;8.646;2023-01-15T07:15:01;99437.91;;;11.18;81.82
19736;BME280;32064;49.310;8.646;2023-01-15T07:17:26;99425.72;;;11.17;81.87
19736;BME280;32064;49.310;8.646;2023-01-15T07:19:52;99428.25;;;11.18;83.33
19736;BME280;32064;49.310;8.646;2023-01-15T07:22:17;99439.16;;;11.14;82.14
19736;BME280;32064;49.310;8.646;2023-01-15T07:24:42;99449.31;;;11.18;82.96
19736;BME280;32064;49.310;8.646;2023-01-15T07:27:08;99445.81;;;11.18;82.69
19736;BME280;32064;49.310;8.646;2023-01-15T07:29:33;99440.41;;;11.10;82.03
19736;BME280;32064;49.310;8.646;2023-01-15T07:31:59;99448.72;;;11.05;82.31
19736;BME280;32064;49.310;8.646;2023-01-15T07:34:24;99460.06;;;11.06;82.29
19736;BME280;32064;49.310;8.646;2023-01-15T07:36:50;99454.09;;;11.04;83.41
19736;BME280;32064;49.310;8.646;2023-01-15T07:39:15;99457.69;;;11.02;81.66
19736;BME280;32064;49.310;8.646;2023-01-15T07:41:41;99472.09;;;10.98;82.09
19736;BME280;32064;49.310;8.646;2023-01-15T07:44:25;99466.25;;;10.95;82.69
19736;BME280;32064;49.310;8.646;2023-01-15T07:47:20;99474.13;;;10.85;80.55
19736;BME280;32064;49.310;8.646;2023-01-15T07:50:07;99486.72;;;10.82;82.06
19736;BME280;32064;49.310;8.646;2023-01-15T07:52:33;99488.91;;;10.76;81.48
19736;BME280;32064;49.310;8.646;2023-01-15T07:54:59;99491.53;;;10.76;80.64
19736;BME280;32064;49.310;8.646;2023-01-15T07:57:25;99490.38;;;10.69;81.69
19736;BME280;32064;49.310;8.646;2023-01-15T07:59:50;99507.00;;;10.70;80.92
19736;BME280;32064;49.310;8.646;2023-01-15T08:02:16;99510.75;;;10.67;80.69
19736;BME280;32064;49.310;8.646;2023-01-15T08:04:41;99503.94;;;10.65;81.54
19736;BME280;32064;49.310;8.646;2023-01-15T08:07:07;99510.66;;;10.57;81.37
19736;BME280;32064;49.310;8.646;2023-01-15T08:09:33;99510.94;;;10.54;80.79
19736;BME280;32064;49.310;8.646;2023-01-15T08:11:59;99509.41;;;10.52;80.06
19736;BME280;32064;49.310;8.646;2023-01-15T08:14:44;99511.19;;;10.51;80.89
19736;BME280;32064;49.310;8.646;2023-01-15T08:17:28;99527.69;;;10.53;80.82
19736;BME280;32064;49.310;8.646;2023-01-15T08:19:54;99520.44;;;10.46;81.21
19736;BME280;32064;49.310;8.646;2023-01-15T08:22:19;99531.66;;;10.48;80.76
19736;BME280;32064;49.310;8.646;2023-01-15T08:24:45;99527.09;;;10.50;80.03
19736;BME280;32064;49.310;8.646;2023-01-15T08:27:11;99534.28;;;10.48;80.16
19736;BME280;32064;49.310;8.646;2023-01-15T08:29:38;99536.31;;;10.44;81.21
19736;BME280;32064;49.310;8.646;2023-01-15T08:32:03;99538.72;;;10.47;79.86
19736;BME280;32064;49.310;8.646;2023-01-15T08:34:29;99538.84;;;10.46;79.75
19736;BME280;32064;49.310;8.646;2023-01-15T08:36:54;99543.28;;;10.45;79.33
19736;BME280;32064;49.310;8.646;2023-01-15T08:39:25;99552.50;;;10.40;79.09
19736;BME280;32064;49.310;8.646;2023-01-15T08:41:50;99559.56;;;10.39;80.60
19736;BME280;32064;49.310;8.646;2023-01-15T08:44:16;99554.31;;;10.39;79.81
19736;BME280;32064;49.310;8.646;2023-01-15T08:46:41;99559.41;;;10.41;79.88
19736;BME280;32064;49.310;8.646;2023-01-15T08:49:09;99564.09;;;10.37;80.70
19736;BME280;32064;49.310;8.646;2023-01-15T08:51:34;99561.34;;;10.39;80.14
19736;BME280;32064;49.310;8.646;2023-01-15T08:54:00;99572.00;;;10.37;81.10
19736;BME280;32064;49.310;8.646;2023-01-15T08:56:25;99562.56;;;10.34;79.48
19736;BME280;32064;49.310;8.646;2023-01-15T08:58:51;99573.06;;;10.34;79.60
19736;BME280;32064;49.310;8.646;2023-01-15T09:01:16;99566.84;;;10.36;79.70
19736;BME280;32064;49.310;8.646;2023-01-15T09:03:42;99575.13;;;10.31;79.74
19736;BME280;32064;49.310;8.646;2023-01-15T09:06:07;99590.41;;;10.26;80.53
19736;BME280;32064;49.310;8.646;2023-01-15T09:08:33;99588.53;;;10.28;79.77
19736;BME280;32064;49.310;8.646;2023-01-15T09:11:00;99583.34;;;10.26;78.41
19736;BME280;32064;49.310;8.646;2023-01-15T09:13:28;99593.16;;;10.24;80.28
19736;BME280;32064;49.310;8.646;2023-01-15T09:15:58;99602.25;;;10.20;79.14
19736;BME280;32064;49.310;8.646;2023-01-15T09:18:24;99600.22;;;10.24;78.44
19736;BME280;32064;49.310;8.646;2023-01-15T09:20:49;99607.88;;;10.27;78.77
19736;BME280;32064;49.310;8.646;2023-01-15T09:23:15;99612.53;;;10.23;79.71
19736;BME280;32064;49.310;8.646;2023-01-15T09:25:52;99607.63;;;10.19;78.91
19736;BME280;32064;49.310;8.646;2023-01-15T09:28:18;99622.72;;;10.17;78.08
19736;BME280;32064;49.310;8.646;2023-01-15T09:30:43;99620.44;;;10.12;80.15
19736;BME280;32064;49.310;8.646;2023-01-15T09:33:09;99623.41;;;10.19;78.81
19736;BME280;32064;49.310;8.646;2023-01-15T09:35:35;99638.47;;;10.17;79.05
19736;BME280;32064;49.310;8.646;2023-01-15T09:38:01;99652.81;;;10.12;78.83
19736;BME280;32064;49.310;8.646;2023-01-15T09:43:09;99654.50;;;10.14;78.96
19736;BME280;32064;49.310;8.646;2023-01-15T09:45:55;99657.34;;;10.10;80.27
19736;BME280;32064;49.310;8.646;2023-01-15T09:48:36;99662.97;;;10.17;78.73
19736;BME280;32064;49.310;8.646;2023-01-15T09:51:32;99662.50;;;10.12;79.82
19736;BME280;32064;49.310;8.646;2023-01-15T09:54:13;99667.38;;;10.17;79.08
19736;BME280;32064;49.310;8.646;2023-01-15T09:56:44;99669.66;;;10.10;79.45
19736;BME280;32064;49.310;8.646;2023-01-15T09:59:30;99671.59;;;10.08;79.24
19736;BME280;32064;49.310;8.646;2023-01-15T10:01:57;99679.47;;;10.08;79.45
19736;BME280;32064;49.310;8.646;2023-01-15T10:04:40;99686.06;;;10.02;78.45
19736;BME280;32064;49.310;8.646;2023-01-15T10:07:12;99689.28;;;10.06;80.18
19736;BME280;32064;49.310;8.646;2023-01-15T10:09:43;99695.25;;;10.08;78.60
19736;BME280;32064;49.310;8.646;2023-01-15T10:12:16;99696.31;;;10.05;78.32
19736;BME280;32064;49.310;8.646;2023-01-15T10:20:32;99714.25;;;10.00;78.67
19736;BME280;32064;49.310;8.646;2023-01-15T10:23:19;99709.72;;;10.02;78.88
19736;BME280;32064;49.310;8.646;2023-01-15T10:25:51;99700.75;;;10.05;78.62
19736;BME280;32064;49.310;8.646;2023-01-15T10:28:24;99698.22;;;10.03;79.80
19736;BME280;32064;49.310;8.646;2023-01-15T10:30:55;99700.38;;;10.09;79.25
19736;BME280;32064;49.310;8.646;2023-01-15T10:35:57;99711.47;;;10.02;79.73
19736;BME280;32064;49.310;8.646;2023-01-15T10:38:30;99707.44;;;9.98;78.90
19736;BME280;32064;49.310;8.646;2023-01-15T10:41:25;99706.59;;;9.86;79.54
19736;BME280;32064;49.310;8.646;2023-01-15T10:44:18;99710.78;;;9.88;79.18
19736;BME280;32064;49.310;8.646;2023-01-15T10:46:50;99699.91;;;9.93;77.50
19736;BME280;32064;49.310;8.646;2023-01-15T10:49:17;99713.50;;;9.98;76.97
19736;BME280;32064;49.310;8.646;2023-01-15T10:57:16;99714.59;;;9.96;77.07
19736;BME280;32064;49.310;8.646;2023-01-15T10:59:50;99709.94;;;9.99;77.20
19736;BME280;32064;49.310;8.646;2023-01-15T11:02:29;99705.28;;;9.92;74.96
19736;BME280;32064;49.310;8.646;2023-01-15T11:04:56;99720.56;;;9.98;75.79
19736;BME280;32064;49.310;8.646;2023-01-15T11:07:43;99733.59;;;9.88;74.88
19736;BME280;32064;49.310;8.646;2023-01-15T11:10:11;99724.41;;;9.82;75.37
19736;BME280;32064;49.310;8.646;2023-01-15T11:13:08;99730.59;;;9.81;75.55
19736;BME280;32064;49.310;8.646;2023-01-15T11:15:55;99732.28;;;9.82;74.95
19736;BME280;32064;49.310;8.646;2023-01-15T11:18:40;99736.00;;;9.80;74.98
19736;BME280;32064;49.310;8.646;2023-01-15T11:21:25;99732.50;;;9.79;74.68
19736;BME280;32064;49.310;8.646;2023-01-15T11:23:53;99728.47;;;9.86;75.16
19736;BME280;32064;49.310;8.646;2023-01-15T11:26:22;99704.56;;;9.89;74.15
19736;BME280;32064;49.310;8.646;2023-01-15T11:28:49;99706.59;;;9.97;74.12
19736;BME280;32064;49.310;8.646;2023-01-15T11:31:16;99704.91;;;9.96;72.96
19736;BME280;32064;49.310;8.646;2023-01-15T11:33:57;99708.41;;;9.97;73.08
19736;BME280;32064;49.310;8.646;2023-01-15T11:36:25;99707.91;;;10.03;73.30
19736;BME280;32064;49.310;8.646;2023-01-15T11:38:51;99718.53;;;10.01;72.77
19736;BME280;32064;49.310;8.646;2023-01-15T11:41:28;99719.16;;;9.94;72.96
19736;BME280;32064;49.310;8.646;2023-01-15T11:44:14;99720.69;;;9.96;71.46
19736;BME280;32064;49.310;8.646;2023-01-15T11:46:58;99733.22;;;9.93;72.16
19736;BME280;32064;49.310;8.646;2023-01-15T11:49:53;99726.56;;;9.88;71.22
19736;BME280;32064;49.310;8.646;2023-01-15T11:52:41;99741.09;;;9.93;71.81
19736;BME280;32064;49.310;8.646;2023-01-15T11:55:18;99733.38;;;9.80;72.31
19736;BME280;32064;49.310;8.646;2023-01-15T11:57:44;99745.44;;;9.94;71.87
19736;BME280;32064;49.310;8.646;2023-01-15T12:00:34;99737.06;;;9.88;72.01
19736;BME280;32064;49.310;8.646;2023-01-15T12:03:05;99742.66;;;9.95;70.64
19736;BME280;32064;49.310;8.646;2023-01-15T12:05:36;99748.88;;;9.94;71.31
19736;BME280;32064;49.310;8.646;2023-01-15T12:08:11;99752.34;;;9.95;72.45
19736;BME280;32064;49.310;8.646;2023-01-15T12:11:00;99758.44;;;9.95;70.98
19736;BME280;32064;49.310;8.646;2023-01-15T12:18:52;99750.63;;;10.16;69.43
19736;BME280;32064;49.310;8.646;2023-01-15T12:29:45;99747.91;;;10.40;70.14
19736;BME280;32064;49.310;8.646;2023-01-15T12:32:19;99750.19;;;10.45;69.33
19736;BME280;32064;49.310;8.646;2023-01-15T12:35:15;99734.72;;;10.51;70.62
19736;BME280;32064;49.310;8.646;2023-01-15T12:37:43;99744.94;;;10.33;69.85
19736;BME280;32064;49.310;8.646;2023-01-15T12:42:40;99742.28;;;10.22;69.56
19736;BME280;32064;49.310;8.646;2023-01-15T12:45:48;99731.41;;;10.04;68.94
19736;BME280;32064;49.310;8.646;2023-01-15T12:48:21;99727.03;;;10.05;69.57
19736;BME280;32064;49.310;8.646;2023-01-15T12:50:53;99739.53;;;10.01;70.71
19736;BME280;32064;49.310;8.646;2023-01-15T12:56:33;99727.38;;;10.00;69.45
19736;BME280;32064;49.310;8.646;2023-01-15T12:59:05;99724.50;;;10.03;70.50
19736;BME280;32064;49.310;8.646;2023-01-15T13:04:56;99714.00;;;9.81;68.77
19736;BME280;32064;49.310;8.646;2023-01-15T13:07:34;99726.41;;;9.90;69.78
19736;BME280;32064;49.310;8.646;2023-01-15T13:10:05;99726.56;;;9.88;68.91
19736;BME280;32064;49.310;8.646;2023-01-15T13:12:35;99720.09;;;9.93;68.94
19736;BME280;32064;49.310;8.646;2023-01-15T13:15:01;99727.88;;;9.94;70.29
19736;BME280;32064;49.310;8.646;2023-01-15T13:17:40;99723.69;;;9.80;68.26
19736;BME280;32064;49.310;8.646;2023-01-15T13:20:48;99732.88;;;9.86;69.24
19736;BME280;32064;49.310;8.646;2023-01-15T13:23:34;99737.06;;;9.88;68.62
19736;BME280;32064;49.310;8.646;2023-01-15T13:29:28;99753.88;;;9.75;69.17
19736;BME280;32064;49.310;8.646;2023-01-15T13:35:08;99759.13;;;9.75;68.02
19736;BME280;32064;49.310;8.646;2023-01-15T13:37:41;99746.84;;;9.75;68.73
19736;BME280;32064;49.310;8.646;2023-01-15T13:42:46;99748.75;;;9.73;67.73
19736;BME280;32064;49.310;8.646;2023-01-15T13:47:38;99755.31;;;9.79;67.28
19736;BME280;32064;49.310;8.646;2023-01-15T13:50:21;99760.06;;;9.74;67.50
19736;BME280;32064;49.310;8.646;2023-01-15T13:53:13;99766.53;;;9.81;68.50
19736;BME280;32064;49.310;8.646;2023-01-15T13:55:47;99767.75;;;9.88;67.98
19736;BME280;32064;49.310;8.646;2023-01-15T13:58:21;99766.53;;;9.81;67.85
19736;BME280;32064;49.310;8.646;2023-01-15T14:00:48;99774.78;;;9.87;68.53
19736;BME280;32064;49.310;8.646;2023-01-15T14:04:30;99778.28;;;9.88;67.88
19736;BME280;32064;49.310;8.646;2023-01-15T14:06:46;99793.41;;;9.96;67.67
19736;BME280;32064;49.310;8.646;2023-01-15T14:09:24;99790.19;;;10.03;68.50
19736;BME280;32064;49.310;8.646;2023-01-15T14:14:28;99784.47;;;10.09;67.99
19736;BME280;32064;49.310;8.646;2023-01-15T14:20:03;99789.47;;;10.12;66.83
19736;BME280;32064;49.310;8.646;2023-01-15T14:23:01;99793.91;;;9.89;68.30
19736;BME280;32064;49.310;8.646;2023-01-15T14:25:37;99797.47;;;9.77;68.15
19736;BME280;32064;49.310;8.646;2023-01-15T14:28:26;99790.19;;;9.81;67.99
19736;BME280;32064;49.310;8.646;2023-01-15T14:31:30;99783.59;;;9.64;67.83
19736;BME280;32064;49.310;8.646;2023-01-15T14:36:49;99815.00;;;9.65;67.51
19736;BME280;32064;49.310;8.646;2023-01-15T14:39:29;99805.81;;;9.60;67.68
19736;BME280;32064;49.310;8.646;2023-01-15T14:44:45;99835.75;;;9.57;68.41
19736;BME280;32064;49.310;8.646;2023-01-15T14:47:23;99821.16;;;9.53;67.85
19736;BME280;32064;49.310;8.646;2023-01-15T14:52:43;99832.47;;;9.42;68.62